createdAt,value
2019-05-30T00:00:20.259Z,1005.75
2019-05-30T00:01:20.310Z,1005.72
2019-05-30T00:02:20.466Z,1005.71
2019-05-30T00:03:20.514Z,1005.75
2019-05-30T00:04:20.222Z,1005.72
2019-05-30T00:05:20.441Z,1005.77
2019-05-30T00:06:20.238Z,1005.75
2019-05-30T00:07:20.201Z,1005.67
2019-05-30T00:08:20.192Z,1005.75
2019-05-30T00:09:20.392Z,1005.73
2019-05-30T00:10:20.208Z,1005.73
2019-05-30T00:11:20.145Z,1005.74
2019-05-30T00:12:20.139Z,1005.67
2019-05-30T00:13:20.231Z,1005.68
2019-05-30T00:14:20.124Z,1005.67
2019-05-30T00:15:20.148Z,1005.68
2019-05-30T00:16:20.119Z,1005.67
2019-05-30T00:17:20.235Z,1005.68
2019-05-30T00:18:20.079Z,1005.64
2019-05-30T00:19:20.116Z,1005.66
2019-05-30T00:20:20.069Z,1005.68
2019-05-30T00:21:20.069Z,1005.70
2019-05-30T00:22:20.009Z,1005.69
2019-05-30T00:23:20.116Z,1005.61
2019-05-30T00:24:20.049Z,1005.70
2019-05-30T00:25:19.967Z,1005.65
2019-05-30T00:26:20.070Z,1005.67
2019-05-30T00:27:20.292Z,1005.66
2019-05-30T00:28:20.175Z,1005.67
2019-05-30T00:29:20.132Z,1005.66
2019-05-30T00:30:24.277Z,1005.64
2019-05-30T00:31:21.067Z,1005.63
2019-05-30T00:32:19.941Z,1005.65
2019-05-30T00:33:19.924Z,1005.67
2019-05-30T00:34:19.917Z,1005.71
2019-05-30T00:35:20.019Z,1005.59
2019-05-30T00:36:19.905Z,1005.64
2019-05-30T00:37:19.886Z,1005.65
2019-05-30T00:38:19.888Z,1005.58
2019-05-30T00:39:19.841Z,1005.64
2019-05-30T00:40:19.953Z,1005.60
2019-05-30T00:41:19.857Z,1005.56
2019-05-30T00:42:19.830Z,1005.60
2019-05-30T00:43:19.819Z,1005.63
2019-05-30T00:44:19.855Z,1005.63
2019-05-30T00:45:21.287Z,1005.57
2019-05-30T00:46:19.824Z,1005.63
2019-05-30T00:47:19.999Z,1005.58
2019-05-30T00:48:19.798Z,1005.62
2019-05-30T00:49:19.761Z,1005.63
2019-05-30T00:50:19.699Z,1005.63
2019-05-30T00:51:19.913Z,1005.67
2019-05-30T00:52:19.686Z,1005.60
2019-05-30T00:53:19.738Z,1005.63
2019-05-30T00:54:19.770Z,1005.62
2019-05-30T00:55:19.774Z,1005.63
2019-05-30T00:56:19.688Z,1005.65
2019-05-30T00:57:19.798Z,1005.65
2019-05-30T00:58:19.650Z,1005.64
2019-05-30T00:59:19.709Z,1005.72
2019-05-30T01:00:19.649Z,1005.66
2019-05-30T01:01:19.607Z,1005.64
2019-05-30T01:02:19.592Z,1005.67
2019-05-30T01:03:19.599Z,1005.64
2019-05-30T01:04:19.603Z,1005.69
2019-05-30T01:05:19.658Z,1005.69
2019-05-30T01:06:19.798Z,1005.64
2019-05-30T01:07:19.548Z,1005.65
2019-05-30T01:08:19.520Z,1005.64
2019-05-30T01:09:19.540Z,1005.63
2019-05-30T01:10:19.550Z,1005.60
2019-05-30T01:11:19.525Z,1005.59
2019-05-30T01:12:19.478Z,1005.58
2019-05-30T01:13:19.488Z,1005.60
2019-05-30T01:14:19.533Z,1005.57
2019-05-30T01:15:19.448Z,1005.57
2019-05-30T01:16:19.555Z,1005.54
2019-05-30T01:17:19.476Z,1005.43
2019-05-30T01:18:19.472Z,1005.47
2019-05-30T01:19:19.438Z,1005.48
2019-05-30T01:20:19.397Z,1005.54
2019-05-30T01:21:19.416Z,1005.53
2019-05-30T01:22:19.379Z,1005.51
2019-05-30T01:23:19.469Z,1005.56
2019-05-30T01:24:19.379Z,1005.52
2019-05-30T01:25:19.340Z,1005.47
2019-05-30T01:26:19.338Z,1005.57
2019-05-30T01:27:19.366Z,1005.56
2019-05-30T01:28:19.343Z,1005.51
2019-05-30T01:29:19.383Z,1005.56
2019-05-30T01:30:19.308Z,1005.54
2019-05-30T01:31:19.412Z,1005.61
2019-05-30T01:32:19.268Z,1005.57
2019-05-30T01:33:19.324Z,1005.59
2019-05-30T01:34:19.270Z,1005.55
2019-05-30T01:35:20.070Z,1005.58
2019-05-30T01:36:19.232Z,1005.60
2019-05-30T01:37:19.275Z,1005.55
2019-05-30T01:38:19.190Z,1005.59
2019-05-30T01:39:19.273Z,1005.60
2019-05-30T01:40:19.167Z,1005.63
2019-05-30T01:41:19.147Z,1005.61
2019-05-30T01:42:19.177Z,1005.61
2019-05-30T01:43:19.319Z,1005.62
2019-05-30T01:44:19.241Z,1005.62
2019-05-30T01:45:19.156Z,1005.58
2019-05-30T01:46:19.235Z,1005.60
2019-05-30T01:47:19.190Z,1005.65
2019-05-30T01:48:19.075Z,1005.63
2019-05-30T01:49:19.196Z,1005.66
2019-05-30T01:50:19.251Z,1005.67
2019-05-30T01:51:19.094Z,1005.65
2019-05-30T01:52:19.035Z,1005.65
2019-05-30T01:53:19.177Z,1005.66
2019-05-30T01:54:19.077Z,1005.62
2019-05-30T01:55:19.128Z,1005.62
2019-05-30T01:56:19.038Z,1005.65
2019-05-30T01:57:18.996Z,1005.56
2019-05-30T01:58:18.976Z,1005.60
2019-05-30T01:59:19.025Z,1005.54
2019-05-30T02:00:21.516Z,1005.56
2019-05-30T02:01:25.056Z,1005.56
2019-05-30T02:02:19.944Z,1005.54
2019-05-30T02:03:18.958Z,1005.55
2019-05-30T02:04:18.905Z,1005.50
2019-05-30T02:05:18.917Z,1005.52
2019-05-30T02:06:19.038Z,1005.51
2019-05-30T02:07:18.899Z,1005.51
2019-05-30T02:08:18.897Z,1005.51
2019-05-30T02:09:18.922Z,1005.50
2019-05-30T02:10:18.893Z,1005.52
2019-05-30T02:11:18.941Z,1005.50
2019-05-30T02:12:18.830Z,1005.48
2019-05-30T02:13:18.825Z,1005.45
2019-05-30T02:14:18.814Z,1005.46
2019-05-30T02:15:18.802Z,1005.38
2019-05-30T02:16:18.869Z,1005.46
2019-05-30T02:17:18.777Z,1005.44
2019-05-30T02:18:18.766Z,1005.48
2019-05-30T02:19:18.763Z,1005.48
2019-05-30T02:20:18.760Z,1005.49
2019-05-30T02:21:18.860Z,1005.49
2019-05-30T02:22:18.705Z,1005.49
2019-05-30T02:23:18.745Z,1005.54
2019-05-30T02:24:18.765Z,1005.53
2019-05-30T02:25:18.686Z,1005.49
2019-05-30T02:26:18.741Z,1005.52
2019-05-30T02:27:18.726Z,1005.53
2019-05-30T02:28:18.682Z,1005.53
2019-05-30T02:29:18.749Z,1005.53
2019-05-30T02:30:18.688Z,1005.57
2019-05-30T02:31:37.608Z,1005.51
2019-05-30T02:32:19.664Z,1005.52
2019-05-30T02:33:18.616Z,1005.53
2019-05-30T02:34:18.772Z,1005.52
2019-05-30T02:35:18.603Z,1005.52
2019-05-30T02:36:18.585Z,1005.56
2019-05-30T02:37:18.674Z,1005.57
2019-05-30T02:38:18.582Z,1005.57
2019-05-30T02:39:18.784Z,1005.55
2019-05-30T02:40:18.621Z,1005.54
2019-05-30T02:41:18.592Z,1005.54
2019-05-30T02:42:18.555Z,1005.56
2019-05-30T02:43:18.545Z,1005.56
2019-05-30T02:44:18.577Z,1005.61
2019-05-30T02:45:18.535Z,1005.62
2019-05-30T02:46:18.479Z,1005.61
2019-05-30T02:47:22.348Z,1005.61
2019-05-30T02:48:18.478Z,1005.65
2019-05-30T02:49:18.423Z,1005.61
2019-05-30T02:50:18.545Z,1005.63
2019-05-30T02:51:18.421Z,1005.65
2019-05-30T02:52:18.405Z,1005.65
2019-05-30T02:53:18.482Z,1005.64
2019-05-30T02:54:18.371Z,1005.66
2019-05-30T02:55:18.567Z,1005.66
2019-05-30T02:56:18.419Z,1005.63
2019-05-30T02:57:18.401Z,1005.63
2019-05-30T02:58:18.372Z,1005.62
2019-05-30T02:59:18.392Z,1005.59
2019-05-30T03:00:18.479Z,1005.62
2019-05-30T03:01:18.337Z,1005.64
2019-05-30T03:02:18.265Z,1005.66
2019-05-30T03:03:18.284Z,1005.71
2019-05-30T03:04:18.587Z,1005.66
2019-05-30T03:05:18.336Z,1005.64
2019-05-30T03:06:18.312Z,1005.68
2019-05-30T03:07:18.254Z,1005.70
2019-05-30T03:08:18.250Z,1005.68
2019-05-30T03:09:18.198Z,1005.68
2019-05-30T03:10:18.321Z,1005.66
2019-05-30T03:11:18.217Z,1005.72
2019-05-30T03:12:18.247Z,1005.68
2019-05-30T03:13:18.209Z,1005.70
2019-05-30T03:14:19.714Z,1005.72
2019-05-30T03:15:18.186Z,1005.69
2019-05-30T03:16:18.151Z,1005.69
2019-05-30T03:17:18.137Z,1005.73
2019-05-30T03:18:18.258Z,1005.74
2019-05-30T03:19:18.149Z,1005.67
2019-05-30T03:20:22.662Z,1005.69
2019-05-30T03:21:19.133Z,1005.71
2019-05-30T03:22:18.054Z,1005.68
2019-05-30T03:23:18.103Z,1005.63
2019-05-30T03:24:18.122Z,1005.70
2019-05-30T03:25:18.056Z,1005.66
2019-05-30T03:26:18.050Z,1005.66
2019-05-30T03:27:18.082Z,1005.69
2019-05-30T03:28:18.047Z,1005.67
2019-05-30T03:29:18.030Z,1005.68
2019-05-30T03:30:26.754Z,1005.65
2019-05-30T03:31:27.836Z,1005.65
2019-05-30T03:33:00.251Z,1005.65
2019-05-30T03:33:38.102Z,1005.62
2019-05-30T03:34:27.868Z,1005.68
2019-05-30T03:35:28.724Z,1005.63
2019-05-30T03:36:28.330Z,1005.60
2019-05-30T03:37:28.582Z,1005.61
2019-05-30T03:38:18.900Z,1005.60
2019-05-30T03:39:17.934Z,1005.61
2019-05-30T03:40:19.166Z,1005.60
2019-05-30T03:41:17.885Z,1005.65
2019-05-30T03:42:17.885Z,1005.62
2019-05-30T03:43:17.910Z,1005.63
2019-05-30T03:44:17.909Z,1005.67
2019-05-30T03:45:17.860Z,1005.69
2019-05-30T03:46:17.826Z,1005.68
2019-05-30T03:47:17.876Z,1005.70
2019-05-30T03:48:17.831Z,1005.72
2019-05-30T03:49:17.772Z,1005.67
2019-05-30T03:50:17.973Z,1005.70
2019-05-30T03:51:17.808Z,1005.66
2019-05-30T03:52:17.784Z,1005.69
2019-05-30T03:53:17.809Z,1005.69
2019-05-30T03:54:17.789Z,1005.71
2019-05-30T03:55:17.779Z,1005.71
2019-05-30T03:56:17.753Z,1005.71
2019-05-30T03:57:17.804Z,1005.70
2019-05-30T03:58:20.458Z,1005.68
2019-05-30T03:59:18.046Z,1005.72
2019-05-30T04:00:18.556Z,1005.72
2019-05-30T04:01:18.607Z,1005.71
2019-05-30T04:02:18.947Z,1005.70
2019-05-30T04:03:19.223Z,1005.74
2019-05-30T04:04:19.059Z,1005.68
2019-05-30T04:05:19.304Z,1005.75
2019-05-30T04:06:18.950Z,1005.74
2019-05-30T04:07:19.421Z,1005.71
2019-05-30T04:08:19.517Z,1005.70
2019-05-30T04:09:22.410Z,1005.72
2019-05-30T04:10:19.861Z,1005.68
2019-05-30T04:11:17.550Z,1005.71
2019-05-30T04:12:17.504Z,1005.72
2019-05-30T04:13:19.222Z,1005.71
2019-05-30T04:14:19.208Z,1005.67
2019-05-30T04:15:18.758Z,1005.74
2019-05-30T04:16:19.457Z,1005.72
2019-05-30T04:17:18.283Z,1005.75
2019-05-30T04:18:19.420Z,1005.72
2019-05-30T04:19:19.716Z,1005.76
2019-05-30T04:20:21.172Z,1005.78
2019-05-30T04:21:21.277Z,1005.82
2019-05-30T04:22:17.405Z,1005.82
2019-05-30T04:23:19.260Z,1005.84
2019-05-30T04:24:17.538Z,1005.86
2019-05-30T04:25:18.665Z,1005.90
2019-05-30T04:26:18.126Z,1005.90
2019-05-30T04:27:18.583Z,1005.96
2019-05-30T04:28:18.688Z,1005.92
2019-05-30T04:29:18.982Z,1005.94
2019-05-30T04:30:18.518Z,1005.95
2019-05-30T04:31:19.202Z,1005.96
2019-05-30T04:32:18.660Z,1005.94
2019-05-30T04:33:31.661Z,1005.96
2019-05-30T04:34:19.585Z,1005.99
2019-05-30T04:35:18.803Z,1005.96
2019-05-30T04:36:19.118Z,1005.98
2019-05-30T04:37:18.924Z,1005.96
2019-05-30T04:38:17.731Z,1005.93
2019-05-30T04:39:19.060Z,1005.93
2019-05-30T04:40:17.635Z,1005.97
2019-05-30T04:41:20.382Z,1005.95
2019-05-30T04:42:18.848Z,1005.96
2019-05-30T04:43:17.914Z,1006.00
2019-05-30T04:44:18.095Z,1006.02
2019-05-30T04:45:17.986Z,1005.98
2019-05-30T04:46:19.133Z,1005.98
2019-05-30T04:47:18.415Z,1005.94
2019-05-30T04:48:18.670Z,1005.98
2019-05-30T04:49:19.080Z,1005.99
2019-05-30T04:50:18.759Z,1005.97
2019-05-30T04:51:19.022Z,1005.99
2019-05-30T04:52:21.084Z,1005.98
2019-05-30T04:53:20.723Z,1005.94
2019-05-30T04:54:18.969Z,1005.93
2019-05-30T04:55:18.472Z,1005.93
2019-05-30T04:56:18.939Z,1005.99
2019-05-30T04:57:19.073Z,1005.94
2019-05-30T04:58:17.913Z,1005.95
2019-05-30T04:59:17.571Z,1005.96
2019-05-30T05:00:17.084Z,1005.99
2019-05-30T05:01:17.728Z,1005.91
2019-05-30T05:02:18.779Z,1005.98
2019-05-30T05:03:28.821Z,1005.94
2019-05-30T05:04:19.453Z,1005.96
2019-05-30T05:05:22.660Z,1005.98
2019-05-30T05:06:18.393Z,1005.97
2019-05-30T05:07:17.964Z,1005.99
2019-05-30T05:08:17.895Z,1006.00
2019-05-30T05:09:18.254Z,1006.00
2019-05-30T05:10:18.243Z,1005.99
2019-05-30T05:11:20.478Z,1005.99
2019-05-30T05:12:18.231Z,1005.97
2019-05-30T05:13:18.246Z,1006.06
2019-05-30T05:14:18.348Z,1006.01
2019-05-30T05:15:16.912Z,1006.00
2019-05-30T05:16:26.098Z,1005.97
2019-05-30T05:17:18.845Z,1006.01
2019-05-30T05:18:17.155Z,1005.99
2019-05-30T05:19:17.385Z,1006.00
2019-05-30T05:20:17.210Z,1006.03
2019-05-30T05:21:16.933Z,1005.99
2019-05-30T05:22:17.051Z,1006.00
2019-05-30T05:23:17.274Z,1006.01
2019-05-30T05:24:17.304Z,1006.00
2019-05-30T05:25:17.449Z,1005.99
2019-05-30T05:26:17.451Z,1006.02
2019-05-30T05:27:17.669Z,1006.00
2019-05-30T05:28:17.715Z,1006.06
2019-05-30T05:29:17.720Z,1006.00
2019-05-30T05:30:17.937Z,1006.05
2019-05-30T05:31:16.874Z,1006.06
2019-05-30T05:32:16.700Z,1006.05
2019-05-30T05:33:16.802Z,1006.05
2019-05-30T05:34:16.743Z,1006.06
2019-05-30T05:35:16.749Z,1006.03
2019-05-30T05:36:16.858Z,1006.07
2019-05-30T05:37:17.052Z,1006.04
2019-05-30T05:38:18.032Z,1006.07
2019-05-30T05:39:17.974Z,1006.04
2019-05-30T05:40:16.647Z,1006.02
2019-05-30T05:41:18.126Z,1005.98
2019-05-30T05:42:16.559Z,1005.98
2019-05-30T05:43:16.774Z,1006.02
2019-05-30T05:44:16.750Z,1006.04
2019-05-30T05:45:16.540Z,1006.02
2019-05-30T05:46:16.572Z,1006.00
2019-05-30T05:47:18.403Z,1005.99
2019-05-30T05:48:16.597Z,1006.03
2019-05-30T05:49:16.499Z,1006.03
2019-05-30T05:50:16.815Z,1006.02
2019-05-30T05:51:16.632Z,1006.01
2019-05-30T05:52:16.923Z,1006.02
2019-05-30T05:53:16.664Z,1006.04
2019-05-30T05:54:16.827Z,1006.01
2019-05-30T05:55:16.722Z,1005.99
2019-05-30T05:56:16.913Z,1006.01
2019-05-30T05:57:16.767Z,1006.02
2019-05-30T05:58:16.779Z,1006.06
2019-05-30T05:59:17.008Z,1006.05
2019-05-30T06:00:16.864Z,1006.08
2019-05-30T06:01:17.279Z,1006.09
2019-05-30T06:02:17.610Z,1006.14
2019-05-30T06:03:16.835Z,1006.12
2019-05-30T06:04:17.192Z,1006.17
2019-05-30T06:05:16.277Z,1006.15
2019-05-30T06:06:17.248Z,1006.20
2019-05-30T06:07:16.265Z,1006.19
2019-05-30T06:08:17.376Z,1006.23
2019-05-30T06:09:16.503Z,1006.30
2019-05-30T06:10:17.413Z,1006.27
2019-05-30T06:11:16.584Z,1006.25
2019-05-30T06:12:17.481Z,1006.22
2019-05-30T06:13:16.567Z,1006.24
2019-05-30T06:14:16.188Z,1006.25
2019-05-30T06:15:16.867Z,1006.24
2019-05-30T06:16:16.207Z,1006.25
2019-05-30T06:17:16.936Z,1006.24
2019-05-30T06:18:16.298Z,1006.24
2019-05-30T06:19:17.160Z,1006.26
2019-05-30T06:20:17.361Z,1006.27
2019-05-30T06:21:17.127Z,1006.31
2019-05-30T06:22:17.418Z,1006.31
2019-05-30T06:23:17.256Z,1006.32
2019-05-30T06:24:17.529Z,1006.26
2019-05-30T06:25:16.069Z,1006.25
2019-05-30T06:26:16.077Z,1006.24
2019-05-30T06:27:16.055Z,1006.34
2019-05-30T06:28:16.060Z,1006.29
2019-05-30T06:29:16.056Z,1006.35
2019-05-30T06:30:16.017Z,1006.27
2019-05-30T06:31:16.007Z,1006.26
2019-05-30T06:32:16.007Z,1006.25
2019-05-30T06:33:15.980Z,1006.28
2019-05-30T06:34:30.157Z,1006.27
2019-05-30T06:35:16.957Z,1006.27
2019-05-30T06:36:15.965Z,1006.29
2019-05-30T06:37:15.955Z,1006.29
2019-05-30T06:38:15.930Z,1006.31
2019-05-30T06:39:15.937Z,1006.26
2019-05-30T06:40:15.907Z,1006.27
2019-05-30T06:41:16.085Z,1006.31
2019-05-30T06:42:16.892Z,1006.32
2019-05-30T06:43:15.864Z,1006.31
2019-05-30T06:44:15.855Z,1006.27
2019-05-30T06:45:15.864Z,1006.31
2019-05-30T06:46:15.845Z,1006.23
2019-05-30T06:47:15.825Z,1006.37
2019-05-30T06:48:17.000Z,1006.35
2019-05-30T06:49:16.013Z,1006.39
2019-05-30T06:50:16.250Z,1006.40
2019-05-30T06:51:15.971Z,1006.43
2019-05-30T06:52:15.958Z,1006.42
2019-05-30T06:53:15.797Z,1006.27
2019-05-30T06:54:15.760Z,1006.32
2019-05-30T06:55:15.736Z,1006.27
2019-05-30T06:56:16.077Z,1006.37
2019-05-30T06:57:15.847Z,1006.36
2019-05-30T06:58:15.722Z,1006.33
2019-05-30T06:59:15.715Z,1006.36
2019-05-30T07:00:15.719Z,1006.29
2019-05-30T07:01:15.710Z,1006.38
2019-05-30T07:02:15.674Z,1006.38
2019-05-30T07:03:15.665Z,1006.42
2019-05-30T07:04:16.123Z,1006.35
2019-05-30T07:05:16.727Z,1006.36
2019-05-30T07:06:16.109Z,1006.42
2019-05-30T07:07:15.965Z,1006.37
2019-05-30T07:08:15.811Z,1006.35
2019-05-30T07:09:15.656Z,1006.39
2019-05-30T07:10:15.712Z,1006.40
2019-05-30T07:11:15.576Z,1006.37
2019-05-30T07:12:15.723Z,1006.40
2019-05-30T07:13:15.567Z,1006.43
2019-05-30T07:14:15.568Z,1006.38
2019-05-30T07:15:15.527Z,1006.35
2019-05-30T07:16:15.727Z,1006.42
2019-05-30T07:17:15.594Z,1006.37
2019-05-30T07:18:15.601Z,1006.40
2019-05-30T07:19:15.579Z,1006.43
2019-05-30T07:20:15.522Z,1006.45
2019-05-30T07:21:15.508Z,1006.39
2019-05-30T07:22:15.463Z,1006.46
2019-05-30T07:23:15.524Z,1006.46
2019-05-30T07:24:15.547Z,1006.53
2019-05-30T07:25:15.445Z,1006.49
2019-05-30T07:26:15.404Z,1006.46
2019-05-30T07:27:15.417Z,1006.47
2019-05-30T07:28:15.946Z,1006.53
2019-05-30T07:29:15.481Z,1006.50
2019-05-30T07:30:15.372Z,1006.56
2019-05-30T07:31:15.410Z,1006.59
2019-05-30T07:32:15.400Z,1006.58
2019-05-30T07:33:15.335Z,1006.69
2019-05-30T07:34:15.335Z,1006.60
2019-05-30T07:35:15.316Z,1006.61
2019-05-30T07:36:15.303Z,1006.70
2019-05-30T07:37:15.284Z,1006.69
2019-05-30T07:38:15.277Z,1006.70
2019-05-30T07:39:16.448Z,1006.74
2019-05-30T07:40:19.457Z,1006.74
2019-05-30T07:41:15.311Z,1006.78
2019-05-30T07:42:15.321Z,1006.81
2019-05-30T07:43:15.378Z,1006.77
2019-05-30T07:44:15.241Z,1006.80
2019-05-30T07:45:15.269Z,1006.79
2019-05-30T07:46:15.219Z,1006.79
2019-05-30T07:47:15.221Z,1006.82
2019-05-30T07:48:15.711Z,1006.79
2019-05-30T07:49:15.223Z,1006.77
2019-05-30T07:50:15.204Z,1006.77
2019-05-30T07:51:15.167Z,1006.71
2019-05-30T07:52:15.208Z,1006.80
2019-05-30T07:53:15.131Z,1006.83
2019-05-30T07:54:15.103Z,1006.82
2019-05-30T07:55:15.113Z,1006.85
2019-05-30T07:56:15.098Z,1006.79
2019-05-30T07:57:15.111Z,1006.84
2019-05-30T07:58:15.990Z,1006.82
2019-05-30T07:59:15.176Z,1006.90
2019-05-30T08:00:15.111Z,1006.89
2019-05-30T08:01:15.064Z,1006.94
2019-05-30T08:02:15.062Z,1006.94
2019-05-30T08:03:15.003Z,1006.96
2019-05-30T08:04:16.076Z,1006.99
2019-05-30T08:05:24.104Z,1006.99
2019-05-30T08:06:16.175Z,1006.92
2019-05-30T08:07:15.050Z,1006.93
2019-05-30T08:08:14.984Z,1006.93
2019-05-30T08:09:14.997Z,1006.98
2019-05-30T08:10:14.938Z,1006.99
2019-05-30T08:11:14.944Z,1006.90
2019-05-30T08:12:14.974Z,1006.94
2019-05-30T08:13:14.949Z,1006.94
2019-05-30T08:14:14.917Z,1006.98
2019-05-30T08:15:15.029Z,1006.96
2019-05-30T08:16:15.076Z,1006.91
2019-05-30T08:17:15.004Z,1006.98
2019-05-30T08:18:15.251Z,1006.90
2019-05-30T08:19:14.994Z,1006.91
2019-05-30T08:20:14.964Z,1006.86
2019-05-30T08:21:15.288Z,1006.96
2019-05-30T08:22:14.960Z,1006.98
2019-05-30T08:23:15.575Z,1006.92
2019-05-30T08:24:14.879Z,1006.97
2019-05-30T08:25:15.117Z,1006.95
2019-05-30T08:26:18.230Z,1007.07
2019-05-30T08:27:14.786Z,1007.06
2019-05-30T08:28:15.110Z,1007.03
2019-05-30T08:29:14.758Z,1007.03
2019-05-30T08:30:14.716Z,1007.04
2019-05-30T08:31:14.698Z,1007.06
2019-05-30T08:32:14.696Z,1007.10
2019-05-30T08:33:14.753Z,1007.05
2019-05-30T08:34:14.725Z,1007.09
2019-05-30T08:35:14.765Z,1007.12
2019-05-30T08:36:14.673Z,1007.13
2019-05-30T08:37:14.969Z,1007.06
2019-05-30T08:38:14.640Z,1007.01
2019-05-30T08:39:14.758Z,1006.95
2019-05-30T08:40:14.678Z,1007.04
2019-05-30T08:41:14.640Z,1006.99
2019-05-30T08:42:14.620Z,1007.08
2019-05-30T08:43:14.667Z,1007.07
2019-05-30T08:44:14.661Z,1007.15
2019-05-30T08:45:14.640Z,1007.13
2019-05-30T08:46:14.540Z,1007.05
2019-05-30T08:47:14.632Z,1007.09
2019-05-30T08:48:14.620Z,1007.00
2019-05-30T08:49:14.740Z,1007.02
2019-05-30T08:50:14.582Z,1007.01
2019-05-30T08:51:14.498Z,1006.98
2019-05-30T08:52:14.614Z,1007.07
2019-05-30T08:53:14.504Z,1007.06
2019-05-30T08:54:14.468Z,1006.99
2019-05-30T08:55:14.459Z,1007.02
2019-05-30T08:56:14.431Z,1006.96
2019-05-30T08:57:14.457Z,1007.00
2019-05-30T08:58:14.412Z,1007.00
2019-05-30T08:59:14.401Z,1006.84
2019-05-30T09:00:14.431Z,1006.93
2019-05-30T09:01:14.371Z,1006.95
2019-05-30T09:02:14.368Z,1006.85
2019-05-30T09:03:14.380Z,1006.81
2019-05-30T09:04:14.742Z,1006.88
2019-05-30T09:05:14.664Z,1006.89
2019-05-30T09:06:14.788Z,1006.88
2019-05-30T09:07:15.320Z,1006.80
2019-05-30T09:08:14.410Z,1006.84
2019-05-30T09:09:14.504Z,1006.84
2019-05-30T09:10:14.353Z,1006.82
2019-05-30T09:11:14.347Z,1006.99
2019-05-30T09:12:14.380Z,1007.00
2019-05-30T09:13:14.251Z,1006.97
2019-05-30T09:14:14.267Z,1006.88
2019-05-30T09:15:14.634Z,1006.90
2019-05-30T09:16:14.242Z,1007.06
2019-05-30T09:17:14.203Z,1006.95
2019-05-30T09:18:14.189Z,1007.12
2019-05-30T09:19:14.191Z,1006.97
2019-05-30T09:20:14.200Z,1006.98
2019-05-30T09:21:14.182Z,1007.01
2019-05-30T09:22:14.147Z,1007.07
2019-05-30T09:23:14.139Z,1006.88
2019-05-30T09:24:14.535Z,1006.90
2019-05-30T09:25:14.302Z,1006.97
2019-05-30T09:26:14.326Z,1006.98
2019-05-30T09:27:14.224Z,1006.89
2019-05-30T09:28:14.091Z,1006.97
2019-05-30T09:29:14.081Z,1007.26
2019-05-30T09:30:14.093Z,1006.94
2019-05-30T09:31:14.050Z,1007.15
2019-05-30T09:32:14.042Z,1006.92
2019-05-30T09:33:14.062Z,1006.93
2019-05-30T09:34:14.022Z,1006.91
2019-05-30T09:35:14.018Z,1006.86
2019-05-30T09:36:14.253Z,1006.91
2019-05-30T09:37:13.990Z,1006.92
2019-05-30T09:38:13.982Z,1006.84
2019-05-30T09:39:13.990Z,1006.93
2019-05-30T09:40:13.963Z,1006.87
2019-05-30T09:41:13.959Z,1006.82
2019-05-30T09:42:14.271Z,1006.83
2019-05-30T09:43:15.417Z,1006.86
2019-05-30T09:44:14.259Z,1006.85
2019-05-30T09:45:13.931Z,1006.90
2019-05-30T09:46:13.890Z,1006.90
2019-05-30T09:47:15.120Z,1006.88
2019-05-30T09:48:14.534Z,1006.93
2019-05-30T09:49:14.121Z,1006.93
2019-05-30T09:50:14.117Z,1006.97
2019-05-30T09:51:14.075Z,1007.03
2019-05-30T09:52:14.225Z,1007.05
2019-05-30T09:53:14.026Z,1006.96
2019-05-30T09:54:13.953Z,1007.06
2019-05-30T09:55:13.830Z,1007.04
2019-05-30T09:56:13.974Z,1007.07
2019-05-30T09:57:13.835Z,1007.06
2019-05-30T09:58:13.818Z,1007.11
2019-05-30T09:59:13.787Z,1007.13
2019-05-30T10:00:13.795Z,1007.06
2019-05-30T10:01:13.847Z,1007.08
2019-05-30T10:02:13.778Z,1007.07
2019-05-30T10:03:13.847Z,1007.15
2019-05-30T10:04:13.726Z,1007.15
2019-05-30T10:05:13.748Z,1007.09
2019-05-30T10:06:28.479Z,1007.19
2019-05-30T10:07:14.701Z,1007.09
2019-05-30T10:08:13.714Z,1007.08
2019-05-30T10:09:14.107Z,1007.18
2019-05-30T10:10:13.644Z,1007.10
2019-05-30T10:11:16.061Z,1007.08
2019-05-30T10:12:13.703Z,1007.10
2019-05-30T10:13:13.851Z,1007.08
2019-05-30T10:14:13.751Z,1007.14
2019-05-30T10:15:13.606Z,1007.06
2019-05-30T10:16:13.594Z,1007.06
2019-05-30T10:17:13.583Z,1007.17
2019-05-30T10:18:13.702Z,1007.08
2019-05-30T10:19:13.576Z,1007.13
2019-05-30T10:20:13.534Z,1007.15
2019-05-30T10:21:13.639Z,1007.11
2019-05-30T10:22:13.583Z,1007.08
2019-05-30T10:23:13.529Z,1007.04
2019-05-30T10:24:13.526Z,1007.02
2019-05-30T10:25:14.990Z,1007.03
2019-05-30T10:26:13.506Z,1007.10
2019-05-30T10:27:13.563Z,1007.15
2019-05-30T10:28:13.459Z,1007.12
2019-05-30T10:29:13.500Z,1007.01
2019-05-30T10:30:13.456Z,1006.96
2019-05-30T10:31:13.471Z,1006.91
2019-05-30T10:32:13.620Z,1007.00
2019-05-30T10:33:13.399Z,1007.04
2019-05-30T10:34:13.426Z,1007.10
2019-05-30T10:35:13.439Z,1007.13
2019-05-30T10:36:14.790Z,1007.17
2019-05-30T10:37:13.511Z,1007.16
2019-05-30T10:38:13.388Z,1007.09
2019-05-30T10:39:13.348Z,1007.03
2019-05-30T10:40:13.689Z,1007.07
2019-05-30T10:41:13.376Z,1007.07
2019-05-30T10:42:13.411Z,1007.09
2019-05-30T10:43:13.308Z,1007.12
2019-05-30T10:44:13.298Z,1007.14
2019-05-30T10:45:13.322Z,1007.07
2019-05-30T10:46:13.265Z,1007.04
2019-05-30T10:47:13.279Z,1007.11
2019-05-30T10:48:13.272Z,1007.11
2019-05-30T10:49:13.333Z,1007.18
2019-05-30T10:50:13.272Z,1007.17
2019-05-30T10:51:13.258Z,1007.14
2019-05-30T10:52:13.246Z,1007.15
2019-05-30T10:53:13.226Z,1007.16
2019-05-30T10:54:13.608Z,1007.13
2019-05-30T10:55:13.178Z,1007.09
2019-05-30T10:56:13.157Z,1007.10
2019-05-30T10:57:13.179Z,1007.20
2019-05-30T10:58:13.129Z,1007.20
2019-05-30T10:59:13.204Z,1007.17
2019-05-30T11:00:13.133Z,1007.15
2019-05-30T11:01:13.109Z,1007.18
2019-05-30T11:02:13.122Z,1007.16
2019-05-30T11:03:13.100Z,1007.23
2019-05-30T11:04:13.110Z,1007.20
2019-05-30T11:05:13.161Z,1007.21
2019-05-30T11:06:13.046Z,1007.19
2019-05-30T11:07:13.063Z,1007.14
2019-05-30T11:08:13.082Z,1007.20
2019-05-30T11:09:13.082Z,1007.18
2019-05-30T11:10:12.988Z,1007.23
2019-05-30T11:11:12.980Z,1007.23
2019-05-30T11:12:12.977Z,1007.28
2019-05-30T11:13:12.957Z,1007.31
2019-05-30T11:14:12.967Z,1007.29
2019-05-30T11:15:12.939Z,1007.39
2019-05-30T11:16:12.929Z,1007.34
2019-05-30T11:17:12.930Z,1007.35
2019-05-30T11:18:12.904Z,1007.31
2019-05-30T11:19:12.898Z,1007.30
2019-05-30T11:20:12.907Z,1007.28
2019-05-30T11:21:12.895Z,1007.31
2019-05-30T11:22:14.549Z,1007.31
2019-05-30T11:23:12.870Z,1007.31
2019-05-30T11:24:12.838Z,1007.36
2019-05-30T11:25:12.840Z,1007.35
2019-05-30T11:26:12.830Z,1007.29
2019-05-30T11:27:12.821Z,1007.30
2019-05-30T11:28:12.796Z,1007.32
2019-05-30T11:29:12.786Z,1007.35
2019-05-30T11:30:12.807Z,1007.31
2019-05-30T11:31:12.772Z,1007.33
2019-05-30T11:32:12.758Z,1007.31
2019-05-30T11:37:26.258Z,1007.32
2019-05-30T11:38:03.624Z,1007.37
2019-05-30T11:38:59.912Z,1007.26
2019-05-30T11:39:59.483Z,1007.34
2019-05-30T11:40:59.604Z,1007.33
2019-05-30T11:41:59.585Z,1007.33
2019-05-30T11:42:59.953Z,1007.29
2019-05-30T11:43:59.707Z,1007.35
2019-05-30T11:44:59.859Z,1007.33
2019-05-30T11:45:59.759Z,1007.39
2019-05-30T11:46:59.748Z,1007.35
2019-05-30T11:47:59.920Z,1007.40
2019-05-30T11:48:59.953Z,1007.40
2019-05-30T11:50:00.256Z,1007.37
2019-05-30T11:50:59.925Z,1007.37
2019-05-30T11:51:59.961Z,1007.38
2019-05-30T11:53:00.288Z,1007.49
2019-05-30T11:53:58.563Z,1007.37
2019-05-30T11:55:05.533Z,1007.39
2019-05-30T11:55:58.780Z,1007.39
2019-05-30T11:57:02.169Z,1007.41
2019-05-30T11:58:02.962Z,1007.41
2019-05-30T11:58:58.483Z,1007.47
2019-05-30T11:59:58.739Z,1007.49
2019-05-30T12:00:58.490Z,1007.51
2019-05-30T12:01:58.583Z,1007.50
2019-05-30T12:03:05.772Z,1007.58
2019-05-30T12:03:58.759Z,1007.50
2019-05-30T12:04:58.651Z,1007.50
2019-05-30T12:05:58.660Z,1007.49
2019-05-30T12:06:58.892Z,1007.50
2019-05-30T12:07:58.950Z,1007.46
2019-05-30T12:08:58.945Z,1007.45